Time;durP1;ratioP1;P1;durP2;ratioP2;P2;SDS_P1;SDS_P2;PMS_P1;PMS_P2;Temp;Humidity;BMP_temperature;BMP_pressure;BME280_temperature;BME280_humidity;BME280_pressure;Samples;Min_cycle;Max_cycle;Signal;HPM_P1;HPM_P2
2021/08/25 03:32:21;;;;;;;40.27;6.23;;;12.70;99.70;;;;;;5053278;28;20205;-67
2021/08/25 03:34:48;;;;;;;41.70;6.30;;;12.60;99.70;;;;;;5053230;28;20205;-67
2021/08/25 03:37:15;;;;;;;40.73;5.80;;;12.60;99.70;;;;;;5053238;28;20445;-67
2021/08/25 03:39:42;;;;;;;41.40;6.30;;;12.60;99.70;;;;;;5052637;28;20455;-67
2021/08/25 03:42:09;;;;;;;43.63;6.43;;;12.60;99.70;;;;;;5053079;28;20458;-67
2021/08/25 03:44:36;;;;;;;43.50;7.00;;;12.70;99.70;;;;;;5053049;28;20859;-67
2021/08/25 03:47:03;;;;;;;41.83;6.00;;;12.60;99.70;;;;;;5053106;28;20491;-67
2021/08/25 03:49:31;;;;;;;45.37;6.53;;;12.60;99.70;;;;;;5052363;28;20810;-68
2021/08/25 03:51:58;;;;;;;42.20;6.27;;;12.50;99.70;;;;;;5052771;28;20462;-68
2021/08/25 03:54:24;;;;;;;40.87;5.63;;;12.70;99.70;;;;;;5052570;28;20954;-66
2021/08/25 03:56:51;;;;;;;48.43;7.43;;;12.60;99.70;;;;;;5053014;28;20448;-67
2021/08/25 03:59:18;;;;;;;43.23;6.13;;;12.70;99.70;;;;;;5052262;28;20446;-67
2021/08/25 04:01:44;;;;;;;38.80;5.60;;;12.80;99.70;;;;;;5052129;28;20497;-67
2021/08/25 04:04:11;;;;;;;41.20;6.07;;;12.80;99.70;;;;;;5052486;28;20444;-67
2021/08/25 04:06:39;;;;;;;41.93;6.93;;;12.90;99.70;;;;;;5052760;28;20503;-67
2021/08/25 04:09:06;;;;;;;40.80;5.97;;;12.80;99.70;;;;;;5051909;28;20957;-67
2021/08/25 04:11:34;;;;;;;40.60;6.90;;;12.80;99.70;;;;;;5050433;28;20464;-67
2021/08/25 04:14:01;;;;;;;42.03;5.87;;;12.60;99.70;;;;;;5052195;28;20446;-67
2021/08/25 04:16:28;;;;;;;41.00;6.33;;;12.50;99.70;;;;;;5052510;28;20493;-68
2021/08/25 04:18:56;;;;;;;37.80;5.00;;;12.50;99.70;;;;;;5051781;28;20444;-67
2021/08/25 04:21:23;;;;;;;41.37;5.53;;;12.40;99.70;;;;;;5052048;28;20651;-67
2021/08/25 04:23:50;;;;;;;41.87;6.90;;;12.50;99.70;;;;;;5051985;28;20439;-64
2021/08/25 04:26:17;;;;;;;38.80;6.50;;;12.60;99.70;;;;;;5052211;28;20479;-67
2021/08/25 04:28:44;;;;;;;45.43;7.10;;;12.60;99.70;;;;;;5051627;28;20440;-66
2021/08/25 04:31:11;;;;;;;44.07;6.97;;;12.80;99.70;;;;;;5051741;28;20480;-67
2021/08/25 04:33:37;;;;;;;42.80;6.30;;;12.80;99.70;;;;;;5052071;28;20471;-66
2021/08/25 04:36:05;;;;;;;41.23;6.73;;;12.70;99.70;;;;;;5051932;28;20451;-67
2021/08/25 04:38:32;;;;;;;40.30;7.07;;;12.70;99.70;;;;;;5051457;28;20448;-66
2021/08/25 04:41:00;;;;;;;43.10;6.20;;;12.60;99.70;;;;;;5051856;28;20440;-68
2021/08/25 04:43:27;;;;;;;43.00;7.70;;;12.60;99.70;;;;;;5051732;28;20443;-67
2021/08/25 04:45:54;;;;;;;39.67;6.07;;;12.60;99.70;;;;;;5051586;28;20482;-67
2021/08/25 04:48:20;;;;;;;43.93;7.20;;;12.60;99.70;;;;;;5052018;28;20796;-67
2021/08/25 04:50:47;;;;;;;41.93;6.00;;;12.50;99.70;;;;;;5051533;28;20451;-68
2021/08/25 04:53:14;;;;;;;37.70;5.60;;;12.50;99.70;;;;;;5051723;28;20439;-67
2021/08/25 04:55:41;;;;;;;39.67;6.10;;;12.50;99.70;;;;;;5051570;28;20440;-67
2021/08/25 04:58:09;;;;;;;43.90;6.00;;;12.60;99.70;;;;;;5051728;28;20443;-67
2021/08/25 05:00:35;;;;;;;40.73;6.63;;;12.50;99.70;;;;;;5051025;28;20439;-67
2021/08/25 05:03:02;;;;;;;44.43;6.13;;;12.40;99.70;;;;;;5051405;28;20468;-67
2021/08/25 05:05:29;;;;;;;39.87;6.60;;;12.50;99.70;;;;;;5051400;28;20450;-68
2021/08/25 05:07:55;;;;;;;42.13;6.60;;;12.50;99.70;;;;;;5051566;28;20444;-68
2021/08/25 05:10:22;;;;;;;43.20;6.67;;;12.50;99.70;;;;;;5050890;28;20444;-69
2021/08/25 05:12:49;;;;;;;39.13;5.50;;;12.50;99.70;;;;;;5049033;28;20462;-67
2021/08/25 05:15:17;;;;;;;41.67;6.20;;;12.50;99.70;;;;;;5050712;28;20442;-66
2021/08/25 05:17:43;;;;;;;42.73;6.53;;;12.50;99.70;;;;;;5050999;28;21405;-66
2021/08/25 05:20:11;;;;;;;39.10;5.87;;;12.50;99.70;;;;;;5051088;28;20443;-69
2021/08/25 05:22:38;;;;;;;39.93;6.23;;;12.60;99.70;;;;;;5051198;28;20464;-69
2021/08/25 05:25:06;;;;;;;40.63;6.00;;;12.50;99.70;;;;;;5050928;28;20432;-69
2021/08/25 05:27:32;;;;;;;40.83;6.07;;;12.50;99.70;;;;;;5050860;28;21043;-69
2021/08/25 05:29:59;;;;;;;44.23;7.03;;;12.80;99.70;;;;;;5050609;28;20945;-69
2021/08/25 05:32:27;;;;;;;45.30;6.63;;;12.80;99.70;;;;;;5050705;28;20884;-69
2021/08/25 05:34:54;;;;;;;43.80;7.67;;;12.90;99.70;;;;;;5050689;28;20505;-68
2021/08/25 05:37:20;;;;;;;44.23;7.67;;;12.90;99.70;;;;;;5050876;28;20443;-69
2021/08/25 05:39:47;;;;;;;48.50;8.13;;;12.90;99.70;;;;;;5050289;28;20446;-68
2021/08/25 05:42:14;;;;;;;45.27;7.57;;;12.90;99.70;;;;;;5050661;28;20835;-69
2021/08/25 05:44:40;;;;;;;45.00;7.53;;;13.30;99.70;;;;;;5050476;28;20447;-69
2021/08/25 05:47:07;;;;;;;46.80;8.57;;;13.40;99.70;;;;;;5050644;28;20475;-70
2021/08/25 05:49:35;;;;;;;44.10;7.70;;;13.60;99.70;;;;;;5050307;28;20452;-69
2021/08/25 05:52:02;;;;;;;46.43;8.50;;;13.80;99.70;;;;;;5050443;28;20978;-67
2021/08/25 05:54:28;;;;;;;46.93;8.07;;;14.00;99.70;;;;;;5050445;28;20451;-66
2021/08/25 05:56:55;;;;;;;46.17;8.23;;;13.80;99.70;;;;;;5050479;28;20435;-68
2021/08/25 05:59:22;;;;;;;44.37;8.00;;;13.80;99.70;;;;;;5049919;28;20458;-67
2021/08/25 06:01:48;;;;;;;44.27;7.87;;;13.80;99.70;;;;;;5050332;28;20542;-67
2021/08/25 06:04:15;;;;;;;41.27;7.50;;;13.90;99.70;;;;;;5050340;28;20450;-66
2021/08/25 06:06:43;;;;;;;43.73;7.80;;;14.00;99.70;;;;;;5050534;28;20487;-67
2021/08/25 06:09:10;;;;;;;47.83;8.40;;;14.00;99.70;;;;;;5049779;28;20444;-67
2021/08/25 06:11:39;;;;;;;42.73;8.07;;;14.10;99.70;;;;;;5048137;28;20459;-66
2021/08/25 06:14:05;;;;;;;41.43;6.77;;;14.20;99.70;;;;;;5050063;28;20451;-66
2021/08/25 06:16:32;;;;;;;39.43;6.50;;;14.20;99.70;;;;;;5050414;28;20440;-67
2021/08/25 06:18:59;;;;;;;39.87;6.80;;;14.20;99.70;;;;;;5049946;28;20443;-67
2021/08/25 06:21:25;;;;;;;44.50;7.87;;;14.60;99.70;;;;;;5050035;28;21044;-66
2021/08/25 06:23:53;;;;;;;44.50;8.27;;;14.60;99.70;;;;;;5050055;28;20450;-66
2021/08/25 06:26:20;;;;;;;45.60;7.33;;;14.60;99.70;;;;;;5050027;28;20672;-66
2021/08/25 06:28:47;;;;;;;43.47;8.50;;;14.60;99.70;;;;;;5049611;28;20501;-67
2021/08/25 06:31:14;;;;;;;45.93;8.90;;;14.60;99.70;;;;;;5049724;28;20475;-66
2021/08/25 06:33:41;;;;;;;43.50;7.80;;;14.70;99.70;;;;;;5050000;28;20439;-67
2021/08/25 06:36:08;;;;;;;43.83;7.37;;;14.70;99.70;;;;;;5049908;28;20439;-66
2021/08/25 06:38:35;;;;;;;42.77;6.87;;;14.80;99.70;;;;;;5049714;28;20876;-66
2021/08/25 06:41:03;;;;;;;42.13;7.17;;;14.90;99.70;;;;;;5049881;28;20460;-67
2021/08/25 06:43:30;;;;;;;43.10;7.20;;;15.00;99.70;;;;;;5049921;28;20471;-69
2021/08/25 06:45:57;;;;;;;42.47;7.60;;;15.00;99.70;;;;;;5049834;28;20953;-67
2021/08/25 06:48:24;;;;;;;41.70;7.70;;;15.20;99.70;;;;;;5049470;28;20486;-66
2021/08/25 06:50:51;;;;;;;42.47;8.10;;;15.40;99.70;;;;;;5049810;28;20458;-67
2021/08/25 06:53:17;;;;;;;39.83;7.80;;;15.60;99.70;;;;;;5050125;28;20450;-67
2021/08/25 06:55:44;;;;;;;41.83;6.87;;;16.30;99.70;;;;;;5049825;28;20451;-66
2021/08/25 06:58:12;;;;;;;39.00;5.83;;;16.90;99.70;;;;;;5050049;28;20447;-67
2021/08/25 07:00:39;;;;;;;36.80;4.80;;;17.50;99.70;;;;;;5049450;28;20452;-68
2021/08/25 07:03:05;;;;;;;39.83;6.37;;;17.90;99.70;;;;;;5049891;28;20471;-67
2021/08/25 07:05:32;;;;;;;38.83;6.70;;;17.90;99.70;;;;;;5049718;28;20440;-67
2021/08/25 07:08:00;;;;;;;38.37;9.00;;;18.40;99.70;;;;;;5050018;28;20479;-66
2021/08/25 07:10:27;;;;;;;39.70;10.93;;;18.50;99.70;;;;;;5049389;28;20443;-66
2021/08/25 07:12:54;;;;;;;38.93;10.33;;;19.10;99.70;;;;;;5047970;28;20475;-67
2021/08/25 07:15:22;;;;;;;39.90;11.70;;;19.10;99.70;;;;;;5049706;28;20443;-66
2021/08/25 07:17:48;;;;;;;38.37;12.20;;;19.80;99.70;;;;;;5049907;28;20442;-67
2021/08/25 07:20:16;;;;;;;37.70;11.63;;;20.40;99.70;;;;;;5049461;28;20443;-68
2021/08/25 07:22:42;;;;;;;38.30;10.47;;;20.30;99.70;;;;;;5049914;28;20746;-67
2021/08/25 07:25:10;;;;;;;36.30;8.90;;;20.20;99.70;;;;;;5049616;28;20447;-66
2021/08/25 07:27:39;;;;;;;36.30;9.10;;;20.40;99.70;;;;;;5049808;28;20489;-66
2021/08/25 07:30:06;;;;;;;37.40;9.30;;;20.30;99.70;;;;;;5049388;28;20447;-67
2021/08/25 07:32:34;;;;;;;36.70;8.60;;;20.10;99.70;;;;;;5050889;28;20475;-66
2021/08/25 07:35:01;;;;;;;35.70;8.33;;;19.90;99.70;;;;;;5049340;28;20439;-66
2021/08/25 07:37:28;;;;;;;39.47;10.53;;;20.20;99.70;;;;;;5051215;28;20447;-66
2021/08/25 07:39:54;;;;;;;37.40;9.77;;;20.00;99.70;;;;;;5052734;28;20451;-66
2021/08/25 07:42:21;;;;;;;37.50;9.60;;;19.80;99.70;;;;;;5053047;28;20467;-67
2021/08/25 07:44:48;;;;;;;37.73;10.13;;;20.10;99.70;;;;;;5052943;28;20444;-67
2021/08/25 07:47:14;;;;;;;38.60;10.80;;;19.80;99.70;;;;;;5053046;28;20990;-66
2021/08/25 07:49:43;;;;;;;35.10;9.63;;;19.30;99.70;;;;;;5052621;28;20853;-66
2021/08/25 07:52:09;;;;;;;36.07;9.23;;;19.30;99.70;;;;;;5052814;28;20468;-66
2021/08/25 07:54:36;;;;;;;36.50;7.67;;;19.20;99.70;;;;;;5052755;28;20447;-66
2021/08/25 07:57:03;;;;;;;34.93;7.07;;;18.90;99.70;;;;;;5052876;28;20440;-66
2021/08/25 07:59:30;;;;;;;34.90;6.80;;;18.70;99.70;;;;;;5052241;28;20867;-66
2021/08/25 08:01:57;;;;;;;36.43;7.40;;;18.70;99.70;;;;;;5052634;28;20471;-67
2021/08/25 08:04:24;;;;;;;36.73;8.00;;;18.70;99.70;;;;;;5052452;28;20460;-66
2021/08/25 08:06:52;;;;;;;43.63;8.10;;;18.70;99.70;;;;;;5052506;28;20478;-66
2021/08/25 08:09:18;;;;;;;36.30;6.83;;;18.70;99.70;;;;;;5052063;28;20450;-67
2021/08/25 08:11:45;;;;;;;35.53;6.93;;;18.70;99.70;;;;;;5050456;28;20517;-67
2021/08/25 08:14:13;;;;;;;34.40;7.37;;;18.80;99.70;;;;;;5052321;28;20474;-66
2021/08/25 08:16:43;;;;;;;34.90;7.33;;;18.70;99.70;;;;;;5052445;28;20443;-66
2021/08/25 08:19:18;;;;;;;34.63;6.70;;;18.70;99.70;;;;;;5052002;28;20514;-66
2021/08/25 08:21:46;;;;;;;36.47;7.60;;;18.40;99.70;;;;;;5052246;28;20478;-66
2021/08/25 08:24:14;;;;;;;35.30;6.43;;;18.40;99.70;;;;;;5052238;28;20497;-67
2021/08/25 08:26:41;;;;;;;34.50;6.70;;;18.50;99.70;;;;;;5052502;28;20847;-66
2021/08/25 08:29:08;;;;;;;36.30;6.33;;;18.40;99.70;;;;;;5051806;28;20440;-66
2021/08/25 08:31:35;;;;;;;35.30;6.30;;;18.40;99.70;;;;;;5051955;28;20475;-66
2021/08/25 08:34:02;;;;;;;36.00;7.30;;;18.30;99.70;;;;;;5052030;28;20447;-66
2021/08/25 08:36:29;;;;;;;37.00;7.10;;;18.30;99.70;;;;;;5052057;28;20443;-67
2021/08/25 08:38:55;;;;;;;37.60;6.97;;;18.60;99.70;;;;;;5051623;28;20475;-66
2021/08/25 08:41:23;;;;;;;36.97;6.80;;;18.50;99.70;;;;;;5051736;28;20464;-66
2021/08/25 08:43:52;;;;;;;36.30;7.40;;;18.20;99.70;;;;;;5051700;28;20455;-66
2021/08/25 08:46:21;;;;;;;37.80;7.73;;;18.40;99.70;;;;;;5052068;28;20865;-67
2021/08/25 08:48:49;;;;;;;38.40;7.57;;;18.50;99.70;;;;;;5050139;28;20476;-67
2021/08/25 08:51:18;;;;;;;37.77;6.87;;;18.40;99.70;;;;;;5051761;28;20470;-66
2021/08/25 08:53:46;;;;;;;34.80;6.80;;;18.40;99.70;;;;;;5051811;28;20470;-66
2021/08/25 08:56:13;;;;;;;37.33;7.63;;;18.20;99.70;;;;;;5051703;28;20432;-66
2021/08/25 08:58:41;;;;;;;34.90;7.47;;;18.30;99.70;;;;;;5051133;28;20793;-66
2021/08/25 09:01:09;;;;;;;35.80;6.40;;;18.30;99.70;;;;;;5051415;28;20483;-67
2021/08/25 09:03:37;;;;;;;36.00;6.43;;;18.40;99.70;;;;;;5051405;28;20931;-66
2021/08/25 09:06:04;;;;;;;36.43;6.87;;;18.40;99.70;;;;;;5051538;28;20451;-66
2021/08/25 09:08:33;;;;;;;37.20;7.97;;;18.30;99.70;;;;;;5050831;28;20479;-67
2021/08/25 09:11:02;;;;;;;38.60;7.90;;;18.40;99.70;;;;;;5049964;28;20447;-67
2021/08/25 09:13:37;;;;;;;37.97;8.20;;;18.50;99.70;;;;;;5051405;28;20450;-66
2021/08/25 09:16:07;;;;;;;37.77;8.07;;;18.50;99.70;;;;;;5051155;28;20451;-66
2021/08/25 09:18:34;;;;;;;37.43;7.93;;;18.80;99.70;;;;;;5050764;28;20440;-67
2021/08/25 09:21:01;;;;;;;36.60;6.83;;;18.70;99.70;;;;;;5051051;28;20447;-66
2021/08/25 09:23:30;;;;;;;36.50;7.10;;;18.70;99.70;;;;;;5050961;28;20930;-65
2021/08/25 09:25:59;;;;;;;35.50;6.73;;;18.90;99.70;;;;;;5050923;28;20451;-67
2021/08/25 09:28:30;;;;;;;34.87;6.90;;;19.00;99.70;;;;;;5050536;28;20526;-67
2021/08/25 09:31:10;;;;;;;37.97;6.47;;;18.90;99.70;;;;;;5050701;28;20455;-66
2021/08/25 09:33:39;;;;;;;35.60;7.23;;;18.90;99.70;;;;;;5050872;28;20448;-67
2021/08/25 09:36:07;;;;;;;35.30;7.53;;;19.00;99.70;;;;;;5050719;28;20463;-67
2021/08/25 09:38:36;;;;;;;34.90;6.80;;;19.30;99.70;;;;;;5050463;28;20442;-66
2021/08/25 09:41:06;;;;;;;35.20;7.87;;;19.70;99.70;;;;;;5050829;28;21092;-67
2021/08/25 09:43:39;;;;;;;35.27;8.53;;;20.10;99.70;;;;;;5050713;28;20444;-67
2021/08/25 09:46:09;;;;;;;37.03;10.43;;;20.50;99.70;;;;;;5050699;28;20916;-67
2021/08/25 09:48:38;;;;;;;36.93;10.20;;;21.40;99.70;;;;;;5050179;28;20483;-68
2021/08/25 09:51:06;;;;;;;38.77;12.27;;;21.80;96.90;;;;;;5050653;28;20467;-68
2021/08/25 09:53:33;;;;;;;36.00;12.30;;;22.00;97.30;;;;;;5050666;28;20455;-67
2021/08/25 09:56:00;;;;;;;37.83;12.80;;;21.80;98.30;;;;;;5050664;28;20454;-67
2021/08/25 09:58:27;;;;;;;41.63;20.90;;;21.80;98.40;;;;;;5050137;28;20443;-67
2021/08/25 10:00:55;;;;;;;43.17;19.67;;;22.50;93.70;;;;;;5050185;28;20953;-68
2021/08/25 10:03:23;;;;;;;41.07;21.80;;;22.60;93.40;;;;;;5050566;28;20443;-67
2021/08/25 10:05:50;;;;;;;40.53;20.23;;;22.40;94.50;;;;;;5050481;28;20930;-67
2021/08/25 10:08:17;;;;;;;39.80;20.40;;;22.30;96.40;;;;;;5050591;28;20905;-66
2021/08/25 10:10:45;;;;;;;41.23;20.30;;;22.00;97.20;;;;;;5049713;28;20454;-67
2021/08/25 10:13:12;;;;;;;41.17;19.43;;;22.20;97.10;;;;;;5049367;28;20443;-68
2021/08/25 10:15:46;;;;;;;41.10;19.50;;;21.70;97.10;;;;;;5049959;28;20466;-67
2021/08/25 10:18:24;;;;;;;37.77;15.30;;;21.20;98.30;;;;;;5050477;28;20486;-67
2021/08/25 10:20:51;;;;;;;39.37;16.30;;;20.90;99.20;;;;;;5050180;28;20447;-67
2021/08/25 10:23:18;;;;;;;39.27;14.20;;;20.60;99.50;;;;;;5050402;28;20814;-67
2021/08/25 10:26:07;;;;;;;37.97;14.57;;;20.60;99.70;;;;;;5050036;28;20431;-68
2021/08/25 10:29:07;;;;;;;40.47;13.70;;;20.40;99.40;;;;;;5049759;28;20924;-66
2021/08/25 10:32:14;;;;;;;40.23;15.10;;;20.40;99.70;;;;;;5049696;28;20534;-67
2021/08/25 10:34:43;;;;;;;37.17;11.80;;;20.30;99.20;;;;;;5049812;28;20435;-66
2021/08/25 10:37:27;;;;;;;38.83;11.33;;;20.20;99.70;;;;;;5050215;28;20509;-67
2021/08/25 10:40:02;;;;;;;36.73;11.50;;;20.10;99.70;;;;;;5049746;28;20440;-66
2021/08/25 10:42:47;;;;;;;36.50;11.63;;;20.40;99.50;;;;;;5049878;28;20485;-67
2021/08/25 10:45:15;;;;;;;39.17;12.57;;;20.10;98.80;;;;;;5049858;28;20444;-67
2021/08/25 10:48:00;;;;;;;37.53;11.30;;;20.20;98.70;;;;;;5049859;28;20479;-67
2021/08/25 10:50:53;;;;;;;37.80;11.60;;;20.30;97.70;;;;;;5049460;28;20934;-67
2021/08/25 10:53:39;;;;;;;37.77;11.33;;;20.20;98.50;;;;;;5050046;28;20435;-66
2021/08/25 10:56:08;;;;;;;37.53;10.30;;;20.20;99.70;;;;;;5049908;28;20485;-67
2021/08/25 10:58:46;;;;;;;36.70;11.33;;;20.30;99.70;;;;;;5049539;28;20431;-67
2021/08/25 11:01:29;;;;;;;37.93;10.37;;;20.40;99.70;;;;;;5050389;28;20455;-66
2021/08/25 11:03:57;;;;;;;36.90;9.97;;;20.40;99.70;;;;;;5049774;28;20439;-67
2021/08/25 11:06:43;;;;;;;37.93;10.97;;;20.20;99.70;;;;;;5050000;28;20455;-67
2021/08/25 11:09:21;;;;;;;38.33;11.57;;;20.40;99.70;;;;;;5049427;28;20490;-67
2021/08/25 11:11:52;;;;;;;38.40;11.43;;;20.20;98.70;;;;;;5049394;28;20459;-67
2021/08/25 11:14:25;;;;;;;37.13;9.83;;;20.40;98.70;;;;;;5053716;28;20467;-66
2021/08/25 11:16:53;;;;;;;35.73;8.53;;;20.40;99.70;;;;;;5053957;28;20448;-68
2021/08/25 11:19:28;;;;;;;37.27;9.43;;;20.40;99.70;;;;;;5053282;28;20450;-67
2021/08/25 11:21:59;;;;;;;34.77;8.80;;;20.10;99.70;;;;;;5053777;28;20463;-67
2021/08/25 11:24:35;;;;;;;36.43;9.93;;;20.00;99.70;;;;;;5053615;28;20444;-67
2021/08/25 11:27:03;;;;;;;36.73;10.13;;;19.60;99.70;;;;;;5054015;28;20443;-67
2021/08/25 11:29:29;;;;;;;37.50;11.10;;;19.40;99.70;;;;;;5052939;28;20482;-67
2021/08/25 11:31:56;;;;;;;37.27;10.60;;;19.70;99.70;;;;;;5053383;28;20482;-67
2021/08/25 11:34:23;;;;;;;34.20;7.97;;;19.70;99.70;;;;;;5053384;28;20446;-67
2021/08/25 11:36:57;;;;;;;37.83;10.30;;;19.90;99.70;;;;;;5053747;28;20543;-67
2021/08/25 11:39:24;;;;;;;35.73;7.90;;;19.90;99.70;;;;;;5052980;28;20470;-67
2021/08/25 11:41:51;;;;;;;39.67;10.03;;;20.10;99.70;;;;;;5053131;28;20466;-67
2021/08/25 11:44:36;;;;;;;38.67;11.10;;;20.20;97.90;;;;;;5053239;28;20449;-67
2021/08/25 11:47:24;;;;;;;37.67;10.40;;;19.80;99.70;;;;;;5053363;28;20559;-67
2021/08/25 11:49:54;;;;;;;35.97;9.20;;;19.80;99.70;;;;;;5046537;28;20518;-67
2021/08/25 11:52:34;;;;;;;37.00;11.33;;;20.00;99.50;;;;;;5053092;28;20471;-67
2021/08/25 11:55:02;;;;;;;35.30;10.20;;;20.20;99.70;;;;;;5052901;28;20443;-67
2021/08/25 11:57:43;;;;;;;39.60;9.90;;;20.10;98.60;;;;;;5052963;28;20444;-67
2021/08/25 12:00:11;;;;;;;35.70;8.23;;;20.00;99.70;;;;;;5052426;28;20466;-67
2021/08/25 12:02:51;;;;;;;41.97;10.63;;;19.80;99.70;;;;;;5052744;28;20468;-67
2021/08/25 12:05:23;;;;;;;37.10;9.20;;;20.00;99.70;;;;;;5052456;28;20451;-67
2021/08/25 12:08:09;;;;;;;36.63;10.27;;;20.20;99.70;;;;;;5052507;28;20444;-67
2021/08/25 12:10:37;;;;;;;38.63;9.87;;;20.10;96.90;;;;;;5052137;28;20877;-67
2021/08/25 12:13:04;;;;;;;36.27;11.10;;;20.40;98.40;;;;;;5051281;28;20842;-67
2021/08/25 12:15:49;;;;;;;35.30;9.53;;;20.30;96.20;;;;;;5052181;28;20447;-67
2021/08/25 12:18:17;;;;;;;39.13;11.93;;;20.30;98.80;;;;;;5052427;28;20448;-67
2021/08/25 12:20:46;;;;;;;37.77;11.07;;;20.20;97.70;;;;;;5051780;28;20443;-67
2021/08/25 12:23:16;;;;;;;39.63;13.80;;;20.30;98.70;;;;;;5052202;28;20448;-67
2021/08/25 12:25:45;;;;;;;37.50;12.40;;;20.20;95.00;;;;;;5051996;28;20439;-67
2021/08/25 12:28:12;;;;;;;36.63;11.13;;;20.20;97.60;;;;;;5052059;28;20480;-67
2021/08/25 12:30:40;;;;;;;37.73;11.67;;;20.20;97.50;;;;;;5051566;28;20691;-67
2021/08/25 12:33:08;;;;;;;36.47;11.27;;;20.30;97.60;;;;;;5052062;28;20472;-67
2021/08/25 12:35:36;;;;;;;36.20;11.63;;;20.10;97.40;;;;;;5051745;28;20475;-67
2021/08/25 12:38:04;;;;;;;44.20;12.70;;;19.80;97.80;;;;;;5052214;28;20452;-67
2021/08/25 12:40:33;;;;;;;36.20;10.17;;;19.70;99.70;;;;;;5051480;28;20519;-67
2021/08/25 12:43:01;;;;;;;36.03;9.83;;;19.70;98.50;;;;;;5052057;28;20478;-67
2021/08/25 12:45:28;;;;;;;36.97;8.97;;;19.70;99.70;;;;;;5051597;28;20951;-67
2021/08/25 12:47:56;;;;;;;36.27;11.90;;;19.70;99.70;;;;;;5051893;28;20475;-67
2021/08/25 12:50:24;;;;;;;36.93;10.83;;;20.10;98.70;;;;;;5051394;28;20523;-68
2021/08/25 12:52:52;;;;;;;37.20;10.13;;;20.20;97.60;;;;;;5051697;28;20464;-68
2021/08/25 12:55:20;;;;;;;36.07;8.97;;;20.10;95.80;;;;;;5051477;28;20506;-68
2021/08/25 12:57:49;;;;;;;36.03;10.43;;;20.10;98.60;;;;;;5051618;28;20455;-67
2021/08/25 13:00:16;;;;;;;38.70;10.90;;;20.10;95.40;;;;;;5051313;28;20531;-68
2021/08/25 13:02:43;;;;;;;37.10;10.43;;;20.20;95.90;;;;;;5051415;28;20850;-67
2021/08/25 13:05:14;;;;;;;38.20;10.93;;;20.20;96.50;;;;;;5051224;28;20929;-67
2021/08/25 13:07:41;;;;;;;37.63;13.17;;;20.10;96.00;;;;;;5051362;28;20444;-67
2021/08/25 13:10:09;;;;;;;37.10;10.60;;;20.00;96.80;;;;;;5050753;28;21036;-67
2021/08/25 13:12:36;;;;;;;36.80;12.20;;;20.10;97.30;;;;;;5049845;28;20471;-67
2021/08/25 13:15:05;;;;;;;36.77;10.43;;;20.10;98.10;;;;;;5051038;28;20451;-67
2021/08/25 13:17:32;;;;;;;36.83;11.00;;;20.30;95.70;;;;;;5051040;28;20451;-67
2021/08/25 13:19:59;;;;;;;37.50;11.97;;;20.00;94.40;;;;;;5050649;28;20451;-67
2021/08/25 13:22:25;;;;;;;36.80;12.30;;;20.00;96.30;;;;;;5051101;28;20825;-67
2021/08/25 13:24:52;;;;;;;36.20;10.80;;;20.20;95.30;;;;;;5050893;28;20443;-68
2021/08/25 13:27:19;;;;;;;38.77;11.80;;;20.20;97.00;;;;;;5051238;28;20450;-67
2021/08/25 13:29:46;;;;;;;37.67;12.27;;;20.20;97.90;;;;;;5050473;28;20515;-67
2021/08/25 13:32:14;;;;;;;36.80;10.83;;;20.20;97.60;;;;;;5052028;28;20570;-67
2021/08/25 13:34:40;;;;;;;38.60;13.80;;;20.20;99.20;;;;;;5050090;28;20938;-67
2021/08/25 13:37:07;;;;;;;38.97;12.00;;;20.50;95.40;;;;;;5050977;28;20530;-67
2021/08/25 13:39:34;;;;;;;40.20;11.13;;;20.40;96.60;;;;;;5050251;28;20448;-67
2021/08/25 13:42:01;;;;;;;36.63;11.77;;;20.30;95.90;;;;;;5050623;28;20470;-67
2021/08/25 13:44:28;;;;;;;35.83;11.17;;;20.10;97.40;;;;;;5050664;28;20454;-67
2021/08/25 13:46:55;;;;;;;37.10;12.30;;;20.00;97.50;;;;;;5050702;28;20935;-67
2021/08/25 13:49:23;;;;;;;39.90;11.00;;;20.10;97.70;;;;;;5050068;28;20872;-67
2021/08/25 13:51:50;;;;;;;39.23;13.37;;;20.20;98.00;;;;;;5050479;28;20479;-68
2021/08/25 13:54:16;;;;;;;37.07;12.70;;;20.50;95.30;;;;;;5050411;28;20454;-67
2021/08/25 13:56:43;;;;;;;36.37;11.80;;;20.40;95.90;;;;;;5050598;28;20455;-67
2021/08/25 13:59:10;;;;;;;37.63;12.43;;;20.30;95.30;;;;;;5049953;28;20817;-67
2021/08/25 14:01:37;;;;;;;39.67;13.40;;;20.20;96.40;;;;;;5050210;28;20993;-67
2021/08/25 14:04:04;;;;;;;36.67;11.13;;;20.20;98.10;;;;;;5050258;28;20462;-67
2021/08/25 14:06:32;;;;;;;38.00;9.60;;;20.30;95.80;;;;;;5050534;28;20448;-68
2021/08/25 14:08:59;;;;;;;36.47;9.83;;;20.20;99.70;;;;;;5050151;28;20494;-67
2021/08/25 14:11:26;;;;;;;38.00;11.97;;;20.50;96.40;;;;;;5049022;28;20487;-67
2021/08/25 14:13:53;;;;;;;36.70;12.13;;;20.50;95.70;;;;;;5049917;28;20460;-68
2021/08/25 14:16:20;;;;;;;38.83;11.80;;;20.30;96.20;;;;;;5050293;28;20450;-67
2021/08/25 14:18:46;;;;;;;37.07;11.03;;;20.10;95.10;;;;;;5049718;28;20435;-67
2021/08/25 14:21:13;;;;;;;37.60;11.50;;;20.20;96.50;;;;;;5050066;28;20468;-67
2021/08/25 14:23:42;;;;;;;38.13;11.47;;;20.10;98.70;;;;;;5050070;28;20443;-67
2021/08/25 14:26:09;;;;;;;38.23;12.77;;;20.20;97.00;;;;;;5050059;28;20539;-67
2021/08/25 14:28:36;;;;;;;36.83;11.67;;;20.30;94.70;;;;;;5049638;28;20456;-67
2021/08/25 14:31:03;;;;;;;41.17;12.80;;;20.40;95.00;;;;;;5049781;28;20466;-67
2021/08/25 14:33:30;;;;;;;37.53;10.67;;;20.40;94.40;;;;;;5049946;28;20455;-67
2021/08/25 14:35:57;;;;;;;37.27;10.40;;;20.20;97.30;;;;;;5049802;28;20478;-67
2021/08/25 14:38:23;;;;;;;37.13;11.63;;;20.20;98.10;;;;;;5049649;28;20454;-67
2021/08/25 14:40:51;;;;;;;38.50;11.70;;;20.40;94.60;;;;;;5049855;28;20439;-67
2021/08/25 14:43:18;;;;;;;36.77;11.57;;;20.20;97.50;;;;;;5049977;28;20454;-67
2021/08/25 14:45:45;;;;;;;37.30;11.23;;;20.10;97.50;;;;;;5049656;28;20451;-67
2021/08/25 14:48:12;;;;;;;36.77;11.73;;;20.20;96.50;;;;;;5053257;28;20822;-68
2021/08/25 14:50:40;;;;;;;39.10;12.90;;;20.30;95.40;;;;;;5053364;28;20487;-67
2021/08/25 14:53:09;;;;;;;37.20;11.77;;;20.30;97.60;;;;;;5054173;28;20459;-67
2021/08/25 14:55:36;;;;;;;38.80;12.03;;;20.40;95.70;;;;;;5053869;28;20448;-67
2021/08/25 14:58:04;;;;;;;37.30;11.47;;;20.50;93.70;;;;;;5053971;28;20439;-67
2021/08/25 15:00:31;;;;;;;38.27;11.60;;;20.50;95.50;;;;;;5053326;28;20440;-67
2021/08/25 15:02:59;;;;;;;35.90;10.60;;;20.30;96.80;;;;;;5053828;28;20517;-68
2021/08/25 15:05:27;;;;;;;38.60;11.67;;;20.30;95.90;;;;;;5053440;28;20439;-67
2021/08/25 15:07:54;;;;;;;37.07;12.40;;;20.20;95.70;;;;;;5053800;28;21053;-67
2021/08/25 15:10:21;;;;;;;38.00;11.40;;;20.30;94.90;;;;;;5053174;28;20570;-67
2021/08/25 15:12:48;;;;;;;38.17;11.70;;;20.20;96.90;;;;;;5052121;28;20459;-67
2021/08/25 15:15:16;;;;;;;37.10;12.37;;;20.10;99.70;;;;;;5053589;28;20451;-66
2021/08/25 15:17:43;;;;;;;38.37;10.67;;;20.30;95.50;;;;;;5053353;28;20452;-67
2021/08/25 15:20:11;;;;;;;37.50;11.73;;;20.20;97.70;;;;;;5053194;28;20476;-67
2021/08/25 15:22:39;;;;;;;38.00;12.30;;;20.20;98.90;;;;;;5053437;28;20463;-67
2021/08/25 15:25:07;;;;;;;37.90;11.17;;;20.30;96.80;;;;;;5053424;28;20443;-67
2021/08/25 15:27:34;;;;;;;37.20;10.83;;;20.30;97.60;;;;;;5053390;28;20452;-67
2021/08/25 15:30:01;;;;;;;36.90;14.40;;;20.40;97.60;;;;;;5052911;28;20886;-67
2021/08/25 15:32:29;;;;;;;36.20;12.07;;;20.40;94.80;;;;;;5053170;28;20471;-67
2021/08/25 15:34:57;;;;;;;36.57;11.03;;;20.20;99.10;;;;;;5053246;28;20451;-67
2021/08/25 15:37:24;;;;;;;36.63;10.53;;;20.30;94.50;;;;;;5053287;28;20443;-67
2021/08/25 15:39:51;;;;;;;35.77;10.90;;;20.40;95.30;;;;;;5052770;28;20443;-66
2021/08/25 15:42:18;;;;;;;38.67;13.70;;;20.20;95.80;;;;;;5053156;28;20471;-67
2021/08/25 15:44:46;;;;;;;38.10;12.50;;;20.20;96.70;;;;;;5053074;28;20895;-66
2021/08/25 15:47:12;;;;;;;36.40;10.77;;;20.10;97.30;;;;;;5053180;28;20446;-67
2021/08/25 15:49:40;;;;;;;38.40;12.00;;;20.10;96.70;;;;;;5052488;28;20486;-67
2021/08/25 15:52:07;;;;;;;39.23;13.17;;;20.10;97.30;;;;;;5052788;28;20460;-67
2021/08/25 15:54:34;;;;;;;36.87;11.07;;;20.00;99.10;;;;;;5052715;28;20819;-66
2021/08/25 15:57:02;;;;;;;36.63;10.80;;;19.90;99.30;;;;;;5052696;28;20447;-67
2021/08/25 15:59:29;;;;;;;38.50;9.90;;;19.90;99.70;;;;;;5051929;28;20443;-67
2021/08/25 16:01:56;;;;;;;37.20;9.77;;;19.80;99.70;;;;;;5052724;28;20463;-67
2021/08/25 16:04:23;;;;;;;43.43;10.57;;;19.90;98.40;;;;;;5052656;28;20447;-67
2021/08/25 16:06:51;;;;;;;35.50;9.00;;;20.00;99.40;;;;;;5052974;28;20523;-68
2021/08/25 16:09:17;;;;;;;36.70;11.17;;;19.90;99.70;;;;;;5052157;28;20448;-68
2021/08/25 16:11:44;;;;;;;35.03;10.33;;;19.90;99.70;;;;;;5051182;28;20463;-67